Time;durP1;ratioP1;P1;durP2;ratioP2;P2;SDS_P1;SDS_P2;PMS_P1;PMS_P2;Temp;Humidity;BMP_temperature;BMP_pressure;BME280_temperature;BME280_humidity;BME280_pressure;Samples;Min_cycle;Max_cycle;Signal;HPM_P1;HPM_P2
2023/09/29 00:00:15;;;;;;;4.77;3.33;;;16.70;99.90;;;;;;6084700;23;20883;-64
2023/09/29 00:02:42;;;;;;;5.20;4.30;;;16.50;99.90;;;;;;6140384;23;20461;-63
2023/09/29 00:05:14;;;;;;;10.23;4.10;;;16.50;99.90;;;;;;6138089;23;20444;-63
2023/09/29 00:07:42;;;;;;;8.00;3.33;;;16.50;99.90;;;;;;6139799;23;20629;-63
2023/09/29 00:10:11;;;;;;;6.30;3.83;;;16.50;99.90;;;;;;6138151;23;20442;-64
2023/09/29 00:12:38;;;;;;;21.30;5.20;;;16.40;99.90;;;;;;6138357;23;20448;-64
2023/09/29 00:15:07;;;;;;;5.53;4.10;;;16.40;99.90;;;;;;6139306;23;20501;-63
2023/09/29 00:17:35;;;;;;;9.23;3.57;;;16.50;99.90;;;;;;6137548;23;20454;-64
2023/09/29 00:20:06;;;;;;;6.20;3.50;;;16.60;99.80;;;;;;6139667;23;20500;-63
2023/09/29 00:22:33;;;;;;;12.30;3.93;;;16.70;99.50;;;;;;6139351;23;20851;-64
2023/09/29 00:25:00;;;;;;;10.07;4.27;;;16.70;99.30;;;;;;6138373;23;20474;-64
2023/09/29 00:27:27;;;;;;;9.20;4.30;;;16.70;99.20;;;;;;6138395;23;20446;-64
2023/09/29 00:29:54;;;;;;;3.97;3.57;;;16.80;99.20;;;;;;6139307;23;20446;-64
2023/09/29 00:32:21;;;;;;;13.17;4.50;;;16.80;99.30;;;;;;6098849;23;20526;-63
2023/09/29 00:34:49;;;;;;;9.07;4.30;;;16.90;99.40;;;;;;6138827;23;20557;-63
2023/09/29 00:37:16;;;;;;;5.10;4.13;;;16.90;99.40;;;;;;6099348;23;20438;-65
2023/09/29 00:39:43;;;;;;;9.60;5.23;;;;;;;;;;6134472;23;20509;-64
2023/09/29 00:42:11;;;;;;;7.00;4.40;;;16.90;99.40;;;;;;6138437;23;20440;-63
2023/09/29 00:44:39;;;;;;;4.77;4.00;;;17.00;99.40;;;;;;6136476;23;20477;-64
2023/09/29 00:47:06;;;;;;;4.40;3.70;;;17.00;99.40;;;;;;6138180;23;20443;-64
2023/09/29 00:49:34;;;;;;;8.00;3.70;;;17.00;99.40;;;;;;6121914;23;20453;-64
2023/09/29 00:52:03;;;;;;;4.73;3.00;;;17.00;99.40;;;;;;6116268;23;20474;-64
2023/09/29 00:54:33;;;;;;;6.17;3.70;;;16.80;99.30;;;;;;6137805;23;20946;-64
2023/09/29 00:57:04;;;;;;;5.00;4.10;;;16.60;99.70;;;;;;6138043;23;20446;-64
2023/09/29 00:59:34;;;;;;;27.13;4.60;;;16.40;99.90;;;;;;6139125;23;20813;-63
2023/09/29 01:02:05;;;;;;;6.80;4.87;;;16.50;99.90;;;;;;6109011;23;20443;-63
2023/09/29 01:04:32;;;;;;;11.00;3.73;;;16.60;99.80;;;;;;6129494;23;20454;-63
2023/09/29 01:06:59;;;;;;;20.17;4.70;;;16.70;99.60;;;;;;6136227;23;20834;-64
2023/09/29 01:09:27;;;;;;;4.47;3.53;;;16.70;99.40;;;;;;6137884;23;20448;-64
2023/09/29 01:11:55;;;;;;;7.23;4.13;;;16.80;99.50;;;;;;6110888;23;20454;-65
2023/09/29 01:14:22;;;;;;;10.80;4.23;;;16.90;99.30;;;;;;6126975;23;20480;-63
2023/09/29 01:16:49;;;;;;;4.30;3.90;;;16.80;99.60;;;;;;6138481;23;20446;-63
2023/09/29 01:19:17;;;;;;;9.60;4.13;;;16.80;99.80;;;;;;6138653;23;20443;-63
2023/09/29 01:21:45;;;;;;;14.23;4.00;;;16.70;99.90;;;;;;6139018;23;20848;-63
2023/09/29 01:24:14;;;;;;;3.63;3.30;;;16.60;99.90;;;;;;6119476;23;20437;-64
2023/09/29 01:26:44;;;;;;;5.67;4.07;;;16.60;99.80;;;;;;6115167;23;20439;-64
2023/09/29 01:29:12;;;;;;;3.73;3.20;;;16.60;99.60;;;;;;6138633;23;20446;-63
2023/09/29 01:31:39;;;;;;;4.73;3.07;;;16.60;99.60;;;;;;6137941;23;20450;-63
2023/09/29 01:34:06;;;;;;;44.67;5.63;;;16.60;99.30;;;;;;6136265;23;20438;-64
2023/09/29 01:36:33;;;;;;;11.50;3.80;;;16.70;99.30;;;;;;6137148;23;20840;-65
2023/09/29 01:39:00;;;;;;;9.30;4.30;;;16.70;99.20;;;;;;6137324;23;20945;-64
2023/09/29 01:41:29;;;;;;;32.77;6.07;;;16.70;99.30;;;;;;6138592;23;20449;-64
2023/09/29 01:43:56;;;;;;;3.83;3.50;;;;;;;;;;6137471;23;20446;-63
2023/09/29 01:46:24;;;;;;;19.20;4.73;;;16.70;99.30;;;;;;6137701;23;20448;-64
2023/09/29 01:48:51;;;;;;;12.60;4.93;;;16.60;99.50;;;;;;6138644;23;20442;-64
2023/09/29 01:51:18;;;;;;;4.33;3.93;;;16.40;99.90;;;;;;6138685;23;20993;-63
2023/09/29 01:53:48;;;;;;;7.23;4.80;;;16.30;99.90;;;;;;6137741;23;20454;-64
2023/09/29 01:56:21;;;;;;;5.17;4.50;;;16.30;99.90;;;;;;6136841;23;20453;-64
2023/09/29 01:58:49;;;;;;;5.53;4.63;;;16.00;99.90;;;;;;6139121;23;20470;-63
2023/09/29 02:01:16;;;;;;;9.07;3.67;;;16.00;99.90;;;;;;6138597;23;20438;-63
2023/09/29 02:03:45;;;;;;;10.73;4.00;;;16.10;99.90;;;;;;6138590;23;20802;-64
2023/09/29 02:06:13;;;;;;;9.10;4.37;;;15.90;99.90;;;;;;6137432;23;20443;-63
2023/09/29 02:08:41;;;;;;;13.43;3.87;;;15.80;99.90;;;;;;6138843;23;20497;-64
2023/09/29 02:11:08;;;;;;;4.97;4.30;;;15.80;99.90;;;;;;6136832;23;20453;-64
2023/09/29 02:13:35;;;;;;;6.03;3.53;;;15.80;99.90;;;;;;6139122;23;20457;-64
2023/09/29 02:16:09;;;;;;;13.40;5.30;;;15.90;99.90;;;;;;6133233;23;20967;-63
2023/09/29 02:18:36;;;;;;;13.70;4.80;;;16.10;99.90;;;;;;6135560;23;20541;-63
2023/09/29 02:21:08;;;;;;;4.67;3.53;;;16.10;99.90;;;;;;6135426;23;20468;-64
2023/09/29 02:23:35;;;;;;;5.07;3.60;;;16.20;99.90;;;;;;6134881;23;20561;-64
2023/09/29 02:26:02;;;;;;;9.90;3.80;;;16.20;99.90;;;;;;6135844;23;20810;-64
2023/09/29 02:28:30;;;;;;;10.17;4.50;;;16.20;99.90;;;;;;6137947;23;20446;-63
2023/09/29 02:30:57;;;;;;;5.77;4.43;;;16.30;99.90;;;;;;6081832;23;20447;-63
2023/09/29 02:33:28;;;;;;;4.27;3.87;;;16.20;99.90;;;;;;6139012;23;20446;-64
2023/09/29 02:35:56;;;;;;;41.17;6.67;;;16.30;99.90;;;;;;6137074;23;20473;-65
2023/09/29 02:38:24;;;;;;;6.70;4.27;;;16.30;99.90;;;;;;6099328;23;20481;-64
2023/09/29 02:40:51;;;;;;;7.57;5.13;;;16.40;99.80;;;;;;6137696;23;20438;-65
2023/09/29 02:43:18;;;;;;;10.53;4.33;;;16.40;99.80;;;;;;6137361;23;20438;-64
2023/09/29 02:45:46;;;;;;;6.27;4.63;;;16.40;99.80;;;;;;6134887;23;20437;-63
2023/09/29 02:48:13;;;;;;;11.60;5.00;;;16.30;99.90;;;;;;6136923;23;20785;-64
2023/09/29 02:50:41;;;;;;;21.90;5.50;;;16.20;99.90;;;;;;6138783;23;20985;-63
2023/09/29 02:53:08;;;;;;;9.50;3.60;;;16.20;99.90;;;;;;6137999;23;21067;-64
2023/09/29 02:55:34;;;;;;;5.43;3.77;;;16.20;99.90;;;;;;6135682;23;20457;-63
2023/09/29 02:58:03;;;;;;;8.03;4.60;;;16.30;99.90;;;;;;6135521;23;20448;-63
2023/09/29 03:00:31;;;;;;;5.93;3.20;;;16.30;99.90;;;;;;6123237;23;20446;-64
2023/09/29 03:02:58;;;;;;;5.63;4.17;;;16.30;99.90;;;;;;6112991;23;20438;-64
2023/09/29 03:05:26;;;;;;;8.00;4.03;;;16.40;99.90;;;;;;6137929;23;20550;-63
2023/09/29 03:07:56;;;;;;;6.90;4.33;;;16.20;99.90;;;;;;6073269;23;20434;-64
2023/09/29 03:10:25;;;;;;;36.27;6.00;;;16.20;99.90;;;;;;6137785;23;20446;-64
2023/09/29 03:12:53;;;;;;;4.87;4.30;;;16.20;99.90;;;;;;6075880;23;20454;-64
2023/09/29 03:15:21;;;;;;;12.47;4.40;;;16.30;99.90;;;;;;6117424;23;20514;-63
2023/09/29 03:17:47;;;;;;;26.40;5.20;;;16.40;99.90;;;;;;6136277;23;20434;-63
2023/09/29 03:20:16;;;;;;;9.03;4.07;;;16.40;99.90;;;;;;6137755;23;20442;-64
2023/09/29 03:22:44;;;;;;;4.20;3.73;;;16.50;99.90;;;;;;6137420;23;20521;-63
2023/09/29 03:25:16;;;;;;;18.27;4.30;;;16.50;99.90;;;;;;6110182;23;20447;-64
2023/09/29 03:27:44;;;;;;;12.50;3.43;;;16.60;99.90;;;;;;6121622;23;21210;-64
2023/09/29 03:30:12;;;;;;;9.37;4.67;;;16.60;99.90;;;;;;6138587;23;20465;-63
2023/09/29 03:32:39;;;;;;;8.03;3.37;;;16.60;99.90;;;;;;6138711;23;20446;-63
2023/09/29 03:35:08;;;;;;;6.87;4.40;;;16.60;99.90;;;;;;6139173;23;20458;-64
2023/09/29 03:37:36;;;;;;;6.33;4.80;;;16.60;99.90;;;;;;6139374;23;20442;-63
2023/09/29 03:40:07;;;;;;;26.73;6.00;;;16.70;99.90;;;;;;6139929;23;20865;-62
2023/09/29 03:42:36;;;;;;;4.47;3.97;;;16.70;99.60;;;;;;6139426;23;20739;-64
2023/09/29 03:45:05;;;;;;;18.50;4.80;;;16.70;99.60;;;;;;6138699;23;20438;-63
2023/09/29 03:47:33;;;;;;;7.27;3.60;;;16.70;99.70;;;;;;6140111;23;20442;-63
2023/09/29 03:50:00;;;;;;;7.23;4.17;;;16.60;99.50;;;;;;6137659;23;20446;-63
2023/09/29 03:52:27;;;;;;;13.50;4.40;;;16.60;99.50;;;;;;6140205;23;20442;-64
2023/09/29 03:54:54;;;;;;;12.33;4.50;;;16.50;99.80;;;;;;6138630;23;20818;-63
2023/09/29 03:57:21;;;;;;;4.73;3.53;;;16.40;99.80;;;;;;6137189;23;20892;-63
2023/09/29 03:59:50;;;;;;;4.40;4.00;;;;;;;;;;6136744;23;20818;-64
2023/09/29 04:02:17;;;;;;;5.93;4.13;;;16.40;99.80;;;;;;6093142;23;20534;-64
2023/09/29 04:04:44;;;;;;;5.70;4.30;;;16.40;99.50;;;;;;6137241;23;21312;-63
2023/09/29 04:07:11;;;;;;;8.27;4.30;;;16.40;99.30;;;;;;6137722;23;20969;-64
2023/09/29 04:09:39;;;;;;;5.03;4.07;;;16.40;99.10;;;;;;6139717;23;20838;-64
2023/09/29 04:12:06;;;;;;;5.30;4.30;;;;;;;;;;6138377;23;20450;-63
2023/09/29 04:14:33;;;;;;;13.60;4.67;;;16.40;99.10;;;;;;6139024;23;20445;-64
2023/09/29 04:17:02;;;;;;;7.50;4.00;;;16.30;99.10;;;;;;6138320;23;20521;-64
2023/09/29 04:19:28;;;;;;;19.00;4.87;;;16.20;99.60;;;;;;6139688;23;20782;-64
2023/09/29 04:21:55;;;;;;;5.33;4.40;;;16.20;99.60;;;;;;6139251;23;20442;-64
2023/09/29 04:24:22;;;;;;;4.27;3.87;;;16.10;99.60;;;;;;6139103;23;21206;-64
2023/09/29 04:26:49;;;;;;;12.77;4.20;;;16.00;99.60;;;;;;6137857;23;20438;-63
2023/09/29 04:29:16;;;;;;;3.60;3.20;;;15.90;99.90;;;;;;6138189;23;20452;-63
2023/09/29 04:31:42;;;;;;;5.83;3.50;;;15.80;99.60;;;;;;6137835;23;20450;-65
2023/09/29 04:34:11;;;;;;;5.63;3.97;;;15.90;99.40;;;;;;6134584;23;20450;-65
2023/09/29 04:36:37;;;;;;;5.60;3.60;;;15.90;99.30;;;;;;6135885;23;20575;-64
2023/09/29 04:39:04;;;;;;;8.43;3.80;;;15.90;99.20;;;;;;6137368;23;20530;-65
2023/09/29 04:41:31;;;;;;;14.00;4.57;;;15.90;99.20;;;;;;6138548;23;20795;-64
2023/09/29 04:44:00;;;;;;;9.60;3.57;;;15.90;99.20;;;;;;6139297;23;20837;-63
2023/09/29 04:46:27;;;;;;;4.03;3.43;;;15.90;99.10;;;;;;6137443;23;20445;-63
2023/09/29 04:48:54;;;;;;;13.30;4.47;;;15.90;99.50;;;;;;6137494;23;20453;-65
2023/09/29 04:51:22;;;;;;;4.00;3.70;;;;;;;;;;6137673;23;20442;-64
2023/09/29 04:53:49;;;;;;;13.90;3.70;;;15.90;99.30;;;;;;6139019;23;21019;-63
2023/09/29 04:56:16;;;;;;;6.90;3.70;;;15.90;99.30;;;;;;6138287;23;20455;-64
2023/09/29 04:58:43;;;;;;;5.33;3.83;;;15.70;99.20;;;;;;6139424;23;20453;-64
2023/09/29 05:01:16;;;;;;;13.33;4.90;;;15.60;99.30;;;;;;6138987;23;20446;-65
2023/09/29 05:03:43;;;;;;;34.17;5.00;;;15.60;99.40;;;;;;6138946;23;20970;-63
2023/09/29 05:06:10;;;;;;;4.53;4.17;;;15.60;99.30;;;;;;6137542;23;20446;-63
2023/09/29 05:08:38;;;;;;;4.97;4.50;;;15.50;99.60;;;;;;6135894;23;20442;-65
2023/09/29 05:11:05;;;;;;;6.30;4.40;;;15.40;99.90;;;;;;6139160;23;20530;-64
2023/09/29 05:13:33;;;;;;;11.90;3.97;;;15.20;99.90;;;;;;6139264;23;20525;-63
2023/09/29 05:16:00;;;;;;;4.20;3.43;;;15.00;99.90;;;;;;6137660;23;20442;-63
2023/09/29 05:18:27;;;;;;;4.33;3.30;;;15.00;99.90;;;;;;6139469;23;20528;-64
2023/09/29 05:20:54;;;;;;;5.70;3.90;;;15.20;99.90;;;;;;6136637;23;20476;-64
2023/09/29 05:23:22;;;;;;;13.83;4.80;;;;;;;;;;6137501;23;20447;-64
2023/09/29 05:25:50;;;;;;;4.83;3.50;;;15.40;99.90;;;;;;6135060;23;20853;-64
2023/09/29 05:28:16;;;;;;;18.93;3.97;;;15.50;99.90;;;;;;6137858;23;20449;-63
2023/09/29 05:30:53;;;;;;;5.00;3.87;;;15.60;99.90;;;;;;6139528;23;20445;-63
2023/09/29 05:33:20;;;;;;;11.73;4.43;;;15.70;99.90;;;;;;6138651;23;20450;-63
2023/09/29 05:35:47;;;;;;;7.63;4.17;;;15.70;99.90;;;;;;6137568;23;20938;-63
2023/09/29 05:38:14;;;;;;;17.50;5.17;;;15.80;99.90;;;;;;6139086;23;20446;-64
2023/09/29 05:40:41;;;;;;;6.03;4.17;;;15.80;99.90;;;;;;6138137;23;20518;-64
2023/09/29 05:43:10;;;;;;;10.87;4.40;;;15.70;99.90;;;;;;6138275;23;21136;-64
2023/09/29 05:45:37;;;;;;;7.17;4.80;;;15.60;99.90;;;;;;6134994;23;20473;-65
2023/09/29 05:48:04;;;;;;;7.27;5.10;;;15.40;99.90;;;;;;6137696;23;20438;-63
2023/09/29 05:50:31;;;;;;;4.63;3.87;;;15.40;99.90;;;;;;6099531;23;20449;-63
2023/09/29 05:52:58;;;;;;;4.57;3.80;;;15.40;99.90;;;;;;6137861;23;20489;-64
2023/09/29 05:55:25;;;;;;;13.07;3.80;;;;;;;;;;6137005;23;20442;-63
2023/09/29 05:57:52;;;;;;;10.93;4.63;;;15.60;99.90;;;;;;6136275;23;20460;-64
2023/09/29 06:00:21;;;;;;;14.13;4.10;;;15.80;99.90;;;;;;6138803;23;20525;-64
2023/09/29 06:02:48;;;;;;;18.93;4.97;;;15.80;99.90;;;;;;6138970;23;20453;-64
2023/09/29 06:05:15;;;;;;;3.97;3.40;;;15.90;99.90;;;;;;6137504;23;20784;-64
2023/09/29 06:07:43;;;;;;;5.70;4.60;;;15.90;99.90;;;;;;6137855;23;20446;-64
2023/09/29 06:10:11;;;;;;;7.07;5.37;;;16.00;99.90;;;;;;6137087;23;20447;-62
2023/09/29 06:12:38;;;;;;;11.70;3.93;;;16.10;99.90;;;;;;6136363;23;20450;-64
2023/09/29 06:15:06;;;;;;;8.20;4.33;;;16.10;99.90;;;;;;6137997;23;20473;-64
2023/09/29 06:17:34;;;;;;;12.97;4.47;;;16.20;99.90;;;;;;6138548;23;20442;-63
2023/09/29 06:20:03;;;;;;;12.93;5.17;;;16.00;99.90;;;;;;6098149;23;20743;-64
2023/09/29 06:22:30;;;;;;;8.30;4.47;;;16.00;99.90;;;;;;6137767;23;20525;-63
2023/09/29 06:24:57;;;;;;;4.67;3.77;;;15.80;99.90;;;;;;6137546;23;20438;-64
2023/09/29 06:27:25;;;;;;;4.40;3.90;;;15.70;99.90;;;;;;6116732;23;20439;-63
2023/09/29 06:29:52;;;;;;;27.83;4.73;;;15.70;99.90;;;;;;6102990;23;20442;-64
2023/09/29 06:32:19;;;;;;;6.87;4.20;;;16.10;99.90;;;;;;6138435;23;20452;-64
2023/09/29 06:34:47;;;;;;;7.80;5.50;;;16.50;99.90;;;;;;6138058;23;20457;-64
2023/09/29 06:37:14;;;;;;;11.20;4.60;;;16.70;99.90;;;;;;6137374;23;21116;-64
2023/09/29 06:39:41;;;;;;;7.20;4.50;;;16.80;99.90;;;;;;6137142;23;20453;-64
2023/09/29 06:42:08;;;;;;;6.10;4.00;;;16.70;99.90;;;;;;6137119;23;20445;-64
2023/09/29 06:44:35;;;;;;;4.80;4.30;;;16.60;99.90;;;;;;6137381;23;20503;-64
2023/09/29 06:47:02;;;;;;;12.83;5.00;;;16.70;99.90;;;;;;6137823;23;20518;-64
2023/09/29 06:49:29;;;;;;;8.10;6.00;;;;;;;;;;6134423;23;20919;-64
2023/09/29 06:51:57;;;;;;;6.80;5.30;;;18.80;99.90;;;;;;6117190;23;20536;-63
2023/09/29 06:54:24;;;;;;;7.90;5.50;;;19.70;99.90;;;;;;6117162;23;20973;-64
2023/09/29 06:56:51;;;;;;;6.07;5.20;;;20.70;98.80;;;;;;6136576;23;20452;-64
2023/09/29 06:59:18;;;;;;;5.93;4.53;;;21.80;98.10;;;;;;6121789;23;20442;-64
2023/09/29 07:01:45;;;;;;;4.47;3.93;;;22.60;97.70;;;;;;6114685;23;20446;-64
2023/09/29 07:04:12;;;;;;;6.70;4.73;;;23.50;95.40;;;;;;6139642;23;20446;-65
2023/09/29 07:06:40;;;;;;;15.40;5.60;;;24.00;94.20;;;;;;6139912;23;20446;-65
2023/09/29 07:09:09;;;;;;;5.97;4.93;;;24.70;94.30;;;;;;6138469;23;20417;-65
2023/09/29 07:11:39;;;;;;;13.13;5.70;;;24.60;93.40;;;;;;6138443;23;20453;-65
2023/09/29 07:14:06;;;;;;;6.80;4.43;;;24.70;93.00;;;;;;6138136;23;20453;-65
2023/09/29 07:16:33;;;;;;;4.73;4.23;;;24.90;93.80;;;;;;6138606;23;20490;-65
2023/09/29 07:19:00;;;;;;;6.70;4.70;;;25.90;93.70;;;;;;6139247;23;20922;-64
2023/09/29 07:21:27;;;;;;;14.90;4.90;;;26.60;93.50;;;;;;6140597;23;20436;-64
2023/09/29 07:23:56;;;;;;;4.90;4.10;;;26.90;92.60;;;;;;6139294;23;20446;-65
2023/09/29 07:26:24;;;;;;;11.90;5.37;;;27.20;92.80;;;;;;6137964;23;20442;-64
2023/09/29 07:28:51;;;;;;;5.97;5.07;;;27.10;92.10;;;;;;6138958;23;20457;-65
2023/09/29 07:31:18;;;;;;;6.10;4.73;;;27.00;91.80;;;;;;6138929;23;20450;-64
2023/09/29 07:33:45;;;;;;;5.70;5.17;;;27.20;92.10;;;;;;6138316;23;20446;-65
2023/09/29 07:36:12;;;;;;;5.97;3.80;;;26.90;91.30;;;;;;6138817;23;20424;-64
2023/09/29 07:38:38;;;;;;;6.07;5.47;;;26.20;92.70;;;;;;6138366;23;20442;-65
2023/09/29 07:41:05;;;;;;;12.13;4.93;;;25.80;93.50;;;;;;6139410;23;20446;-65
2023/09/29 07:43:33;;;;;;;7.50;4.73;;;25.10;94.00;;;;;;6113632;23;20413;-64
2023/09/29 07:46:02;;;;;;;21.83;6.67;;;25.10;94.70;;;;;;6123831;23;20438;-66
2023/09/29 07:48:29;;;;;;;11.73;4.33;;;24.60;94.60;;;;;;6138521;23;20476;-65
2023/09/29 07:50:56;;;;;;;8.27;4.90;;;24.30;95.40;;;;;;6114790;23;20462;-65
2023/09/29 07:53:23;;;;;;;7.03;4.93;;;23.50;95.30;;;;;;6124891;23;20448;-64
2023/09/29 07:55:49;;;;;;;12.90;5.13;;;23.20;95.90;;;;;;6139116;23;22074;-66
2023/09/29 07:58:16;;;;;;;5.77;4.90;;;23.00;96.10;;;;;;6138113;23;20522;-65
2023/09/29 08:00:45;;;;;;;5.17;4.70;;;22.80;96.60;;;;;;6124754;23;20421;-65
2023/09/29 08:03:11;;;;;;;6.20;4.70;;;22.60;96.90;;;;;;6098844;23;20442;-67
2023/09/29 08:05:38;;;;;;;8.40;4.77;;;22.70;97.50;;;;;;6136241;23;20517;-66
2023/09/29 08:08:06;;;;;;;11.00;4.40;;;22.70;97.50;;;;;;6128111;23;20415;-66
2023/09/29 08:10:33;;;;;;;5.20;4.47;;;22.80;97.50;;;;;;6131818;23;20517;-66
2023/09/29 08:13:00;;;;;;;8.13;4.50;;;23.10;97.40;;;;;;6132900;23;20809;-65
2023/09/29 08:15:27;;;;;;;13.73;5.00;;;23.00;96.90;;;;;;6140106;23;20450;-66
2023/09/29 08:17:55;;;;;;;6.80;6.10;;;22.90;97.10;;;;;;6138363;23;20447;-67
2023/09/29 08:20:22;;;;;;;20.20;6.50;;;22.90;97.30;;;;;;6137725;23;20502;-66
2023/09/29 08:22:49;;;;;;;4.97;4.00;;;22.90;97.30;;;;;;6139110;23;20446;-68
2023/09/29 08:25:16;;;;;;;5.63;4.70;;;22.70;97.20;;;;;;6135820;23;20442;-65
2023/09/29 08:27:43;;;;;;;9.13;4.83;;;22.80;97.50;;;;;;6135233;23;20442;-66
2023/09/29 08:30:10;;;;;;;26.07;6.40;;;22.80;98.10;;;;;;6135528;23;20438;-65
2023/09/29 08:32:38;;;;;;;5.17;4.57;;;22.80;97.50;;;;;;6139618;23;20420;-66
2023/09/29 08:35:12;;;;;;;5.10;4.60;;;22.80;98.00;;;;;;6138127;23;20512;-67
2023/09/29 08:37:39;;;;;;;7.30;5.10;;;22.80;97.90;;;;;;6097411;23;20523;-68
2023/09/29 08:40:09;;;;;;;5.00;4.50;;;22.70;97.90;;;;;;6138447;23;20434;-66
2023/09/29 08:42:39;;;;;;;6.67;5.13;;;23.00;97.90;;;;;;6135818;23;20483;-65
2023/09/29 08:45:09;;;;;;;5.53;5.03;;;22.80;97.50;;;;;;6138716;23;20549;-68
2023/09/29 08:47:37;;;;;;;32.30;5.90;;;23.00;97.80;;;;;;6138013;23;20678;-65
2023/09/29 08:50:08;;;;;;;6.47;5.03;;;22.90;98.00;;;;;;6119668;23;20498;-65
2023/09/29 08:52:36;;;;;;;8.83;5.23;;;23.20;97.70;;;;;;6116611;23;20446;-65
2023/09/29 08:55:04;;;;;;;18.83;5.20;;;23.00;97.40;;;;;;6138426;23;20529;-65
2023/09/29 08:57:31;;;;;;;7.57;5.30;;;23.20;97.80;;;;;;6138797;23;20450;-67
2023/09/29 09:00:01;;;;;;;13.90;6.37;;;23.20;97.70;;;;;;6137408;23;20457;-68
2023/09/29 09:02:28;;;;;;;15.90;6.10;;;23.30;97.80;;;;;;6138926;23;21166;-66
2023/09/29 09:04:54;;;;;;;5.00;4.50;;;23.40;98.00;;;;;;6137731;23;20848;-66
2023/09/29 09:07:23;;;;;;;5.50;4.60;;;23.50;98.10;;;;;;6139045;23;20446;-66
2023/09/29 09:09:51;;;;;;;7.47;3.50;;;23.80;96.80;;;;;;6137354;23;20827;-67
2023/09/29 09:12:18;;;;;;;6.03;5.43;;;23.90;97.40;;;;;;6137320;23;20822;-66
2023/09/29 09:14:46;;;;;;;6.50;4.60;;;23.70;97.30;;;;;;6137305;23;20454;-67
2023/09/29 09:17:13;;;;;;;4.77;4.27;;;24.00;97.40;;;;;;6136763;23;20423;-67
2023/09/29 09:19:43;;;;;;;5.73;4.00;;;24.10;97.20;;;;;;6136404;23;20421;-67
2023/09/29 09:22:16;;;;;;;20.80;6.00;;;24.20;98.00;;;;;;6137959;23;20480;-66
2023/09/29 09:24:44;;;;;;;6.03;5.17;;;23.90;96.70;;;;;;6139051;23;20448;-68
2023/09/29 09:27:13;;;;;;;8.10;5.47;;;23.90;97.20;;;;;;6096939;23;20857;-67
2023/09/29 09:29:41;;;;;;;8.13;5.70;;;23.90;97.40;;;;;;6097048;23;20405;-68
2023/09/29 09:32:10;;;;;;;9.00;5.30;;;23.70;96.90;;;;;;6138683;23;20420;-68
2023/09/29 09:34:39;;;;;;;5.17;4.30;;;23.90;97.20;;;;;;6138818;23;20656;-66
2023/09/29 09:37:08;;;;;;;4.30;3.90;;;;;;;;;;6137500;23;20484;-68
2023/09/29 09:39:36;;;;;;;6.57;3.70;;;23.90;97.20;;;;;;6137659;23;22670;-67
2023/09/29 09:42:05;;;;;;;8.73;4.57;;;24.00;97.40;;;;;;6136185;23;20573;-68
2023/09/29 09:44:34;;;;;;;5.83;3.90;;;24.10;96.40;;;;;;6138401;23;20435;-67
2023/09/29 09:47:02;;;;;;;4.73;4.17;;;24.30;96.70;;;;;;6137765;23;20452;-68
2023/09/29 09:49:38;;;;;;;21.97;5.83;;;24.10;96.50;;;;;;6138619;23;20562;-67
2023/09/29 09:52:07;;;;;;;6.27;4.37;;;24.20;96.60;;;;;;6137883;23;20908;-68
2023/09/29 09:54:41;;;;;;;5.70;4.33;;;24.40;96.90;;;;;;6137702;23;20689;-67
2023/09/29 09:57:13;;;;;;;12.93;5.07;;;24.60;97.40;;;;;;6097628;23;20568;-68
2023/09/29 09:59:44;;;;;;;5.10;4.43;;;24.60;96.20;;;;;;6125230;23;20450;-67
2023/09/29 10:02:11;;;;;;;4.63;3.47;;;24.80;96.30;;;;;;6138215;23;20417;-68
2023/09/29 10:04:39;;;;;;;8.30;4.10;;;;;;;;;;6138543;23;21202;-65
2023/09/29 10:07:07;;;;;;;6.53;4.17;;;25.40;96.50;;;;;;6137607;23;20771;-67
2023/09/29 10:09:44;;;;;;;4.40;3.97;;;25.30;95.80;;;;;;6136990;23;21016;-67
2023/09/29 10:12:26;;;;;;;3.50;3.20;;;25.20;95.10;;;;;;6137437;23;20446;-67
2023/09/29 10:14:53;;;;;;;5.90;3.20;;;;;;;;;;6087623;23;20487;-67
2023/09/29 10:17:21;;;;;;;10.67;3.10;;;25.00;94.80;;;;;;6133183;23;20442;-68
2023/09/29 10:19:51;;;;;;;7.53;4.10;;;24.80;94.80;;;;;;6139415;23;20429;-68
2023/09/29 10:22:25;;;;;;;6.27;3.97;;;24.70;96.00;;;;;;6137825;23;20477;-67
2023/09/29 10:24:56;;;;;;;11.80;3.73;;;24.60;95.80;;;;;;6135784;23;20532;-67
2023/09/29 10:27:33;;;;;;;14.20;4.40;;;24.50;95.80;;;;;;6132891;23;20449;-69
2023/09/29 10:30:15;;;;;;;4.43;3.40;;;24.40;95.30;;;;;;6130310;23;20445;-69
2023/09/29 10:32:43;;;;;;;4.90;3.50;;;24.30;95.70;;;;;;6133786;23;20803;-67
2023/09/29 10:35:18;;;;;;;6.27;3.50;;;24.30;96.20;;;;;;6133331;23;20470;-68
2023/09/29 10:37:47;;;;;;;36.97;5.17;;;24.30;95.90;;;;;;6093410;23;20447;-68
2023/09/29 10:40:21;;;;;;;4.30;3.17;;;24.30;96.00;;;;;;6094893;23;20743;-67
2023/09/29 10:42:54;;;;;;;4.47;3.03;;;24.30;96.00;;;;;;6017244;23;20735;-67
2023/09/29 10:45:36;;;;;;;8.67;2.80;;;24.20;96.00;;;;;;6110963;23;20468;-67
2023/09/29 10:48:05;;;;;;;13.17;3.70;;;24.00;95.90;;;;;;6133411;23;20756;-68
2023/09/29 10:50:39;;;;;;;10.87;3.00;;;23.80;96.30;;;;;;6133232;23;20443;-66
2023/09/29 10:53:07;;;;;;;14.90;3.83;;;23.50;96.60;;;;;;6133595;23;20461;-68
2023/09/29 10:55:37;;;;;;;4.63;3.00;;;23.50;96.60;;;;;;6079762;23;20965;-67
2023/09/29 10:58:05;;;;;;;4.27;3.10;;;23.30;97.30;;;;;;6131381;23;20776;-69
2023/09/29 11:00:40;;;;;;;4.33;2.80;;;23.30;97.20;;;;;;6134235;23;21111;-66
2023/09/29 11:03:08;;;;;;;3.93;2.63;;;23.30;97.50;;;;;;6133309;23;20441;-69
2023/09/29 11:05:45;;;;;;;19.33;4.30;;;23.30;97.40;;;;;;6094403;23;20501;-68
2023/09/29 11:08:13;;;;;;;7.93;2.70;;;23.30;97.50;;;;;;6107509;23;20460;-69
2023/09/29 11:10:41;;;;;;;6.60;3.13;;;23.30;97.10;;;;;;6094308;23;20443;-69
2023/09/29 11:13:18;;;;;;;4.77;3.27;;;23.20;96.90;;;;;;6133257;23;20453;-69
2023/09/29 11:15:44;;;;;;;5.17;3.30;;;23.10;97.00;;;;;;6133967;23;20449;-68
2023/09/29 11:18:11;;;;;;;9.07;3.47;;;23.10;97.10;;;;;;6133504;23;20449;-68
2023/09/29 11:20:42;;;;;;;19.07;4.47;;;22.90;96.80;;;;;;6135625;23;20446;-67
2023/09/29 11:23:11;;;;;;;4.10;2.80;;;22.70;96.90;;;;;;6134143;23;20446;-67
2023/09/29 11:25:46;;;;;;;7.00;3.00;;;;;;;;;;6134717;23;20449;-68
2023/09/29 11:28:13;;;;;;;17.07;3.63;;;22.70;96.90;;;;;;6132058;23;20830;-67
2023/09/29 11:30:41;;;;;;;19.37;4.57;;;22.80;96.90;;;;;;6133215;23;20447;-70
2023/09/29 11:33:10;;;;;;;18.13;3.77;;;22.80;96.60;;;;;;6134365;23;20417;-68
2023/09/29 11:35:37;;;;;;;12.53;4.90;;;22.90;96.90;;;;;;6134277;23;20453;-68
2023/09/29 11:38:05;;;;;;;5.57;3.63;;;23.00;96.90;;;;;;6093812;23;20443;-67
2023/09/29 11:40:33;;;;;;;24.47;4.43;;;23.00;96.50;;;;;;6131594;23;20457;-66
2023/09/29 11:43:00;;;;;;;15.23;5.40;;;23.00;96.50;;;;;;6130902;23;20835;-66
2023/09/29 11:45:27;;;;;;;11.07;4.30;;;23.20;96.70;;;;;;6133620;23;20457;-67
2023/09/29 11:47:56;;;;;;;5.73;3.53;;;23.40;95.60;;;;;;6132668;23;20442;-67
2023/09/29 11:50:22;;;;;;;15.93;4.50;;;23.40;95.20;;;;;;6134624;23;20997;-66
2023/09/29 11:52:49;;;;;;;8.70;3.77;;;23.40;94.80;;;;;;6134573;23;20446;-67
2023/09/29 11:55:16;;;;;;;15.53;4.67;;;23.30;94.70;;;;;;6134514;23;20867;-66
2023/09/29 11:57:43;;;;;;;16.43;5.40;;;23.20;94.70;;;;;;6131698;23;20479;-69
2023/09/29 12:00:13;;;;;;;10.37;4.90;;;;;;;;;;6134442;23;20532;-66
2023/09/29 12:02:40;;;;;;;25.03;6.90;;;23.30;95.00;;;;;;6134488;23;20909;-66
2023/09/29 12:05:11;;;;;;;13.40;5.10;;;23.30;95.40;;;;;;6134183;23;20503;-66
2023/09/29 12:07:38;;;;;;;23.97;5.83;;;23.20;94.50;;;;;;6134209;23;20449;-66
2023/09/29 12:10:07;;;;;;;11.03;4.50;;;23.30;94.70;;;;;;6134410;23;20469;-67
2023/09/29 12:12:33;;;;;;;14.00;5.70;;;23.30;94.90;;;;;;6134683;23;20500;-68
2023/09/29 12:15:00;;;;;;;24.13;6.20;;;23.10;94.10;;;;;;6134856;23;20442;-66
2023/09/29 12:17:27;;;;;;;22.00;7.03;;;23.10;94.40;;;;;;6132656;23;20446;-66
2023/09/29 12:19:54;;;;;;;13.40;4.97;;;23.10;95.20;;;;;;6134793;23;20456;-67
2023/09/29 12:22:22;;;;;;;22.97;7.60;;;23.20;95.00;;;;;;6134051;23;20586;-67
2023/09/29 12:24:49;;;;;;;16.10;6.63;;;23.10;94.60;;;;;;6135319;23;20454;-67
2023/09/29 12:27:16;;;;;;;20.20;7.27;;;23.10;94.60;;;;;;6132167;23;20446;-66
2023/09/29 12:29:44;;;;;;;22.90;8.53;;;23.10;94.90;;;;;;6134452;23;20810;-66
2023/09/29 12:32:11;;;;;;;22.93;8.40;;;23.00;94.90;;;;;;6134921;23;20513;-66
2023/09/29 12:34:38;;;;;;;17.13;5.83;;;23.20;94.50;;;;;;6136132;23;20454;-66
2023/09/29 12:37:07;;;;;;;25.63;8.00;;;23.40;94.20;;;;;;6131281;23;20597;-67
2023/09/29 12:39:39;;;;;;;23.67;7.33;;;23.50;94.40;;;;;;6134371;23;20442;-67
2023/09/29 12:42:08;;;;;;;29.77;7.10;;;23.50;94.30;;;;;;6133179;23;20826;-66
2023/09/29 12:44:35;;;;;;;20.73;7.33;;;23.30;93.60;;;;;;6135422;23;20461;-67
2023/09/29 12:47:02;;;;;;;26.87;8.03;;;23.10;93.70;;;;;;6133684;23;20443;-67
2023/09/29 12:49:29;;;;;;;27.60;10.07;;;23.00;93.80;;;;;;6135180;23;20442;-68
2023/09/29 12:51:55;;;;;;;27.37;8.10;;;22.90;93.60;;;;;;6134058;23;21016;-65